sensor_id;sensor_type;location;lat;lon;timestamp;temperature;humidity
47414;DHT22;33163;0.000;0.000;2022-08-02T00:01:52;23.20;58.70
47414;DHT22;33163;0.000;0.000;2022-08-02T00:04:20;23.20;58.90
47414;DHT22;33163;0.000;0.000;2022-08-02T00:06:47;23.20;58.90
47414;DHT22;33163;0.000;0.000;2022-08-02T00:09:14;23.20;58.90
47414;DHT22;33163;0.000;0.000;2022-08-02T00:11:41;23.20;59.00
47414;DHT22;33163;0.000;0.000;2022-08-02T00:14:07;23.10;58.80
47414;DHT22;33163;0.000;0.000;2022-08-02T00:16:34;23.20;59.20
47414;DHT22;33163;0.000;0.000;2022-08-02T00:19:01;23.10;58.80
47414;DHT22;33163;0.000;0.000;2022-08-02T00:21:29;23.10;58.70
47414;DHT22;33163;0.000;0.000;2022-08-02T00:23:56;23.10;58.70
47414;DHT22;33163;0.000;0.000;2022-08-02T00:26:23;23.10;59.00
47414;DHT22;33163;0.000;0.000;2022-08-02T00:28:49;23.10;58.80
47414;DHT22;33163;0.000;0.000;2022-08-02T00:31:16;23.10;58.80
47414;DHT22;33163;0.000;0.000;2022-08-02T00:33:43;23.10;58.80
47414;DHT22;33163;0.000;0.000;2022-08-02T00:36:10;23.10;58.70
47414;DHT22;33163;0.000;0.000;2022-08-02T00:38:41;23.20;58.80
47414;DHT22;33163;0.000;0.000;2022-08-02T00:41:13;23.10;58.80
47414;DHT22;33163;0.000;0.000;2022-08-02T00:43:41;23.10;58.70
47414;DHT22;33163;0.000;0.000;2022-08-02T00:46:08;23.10;58.80
47414;DHT22;33163;0.000;0.000;2022-08-02T00:48:34;23.10;59.10
47414;DHT22;33163;0.000;0.000;2022-08-02T00:51:01;23.10;59.00
47414;DHT22;33163;0.000;0.000;2022-08-02T00:53:28;23.10;58.70
47414;DHT22;33163;0.000;0.000;2022-08-02T00:55:56;23.10;58.90
47414;DHT22;33163;0.000;0.000;2022-08-02T00:58:23;23.10;58.90
47414;DHT22;33163;0.000;0.000;2022-08-02T01:00:50;23.10;58.80
47414;DHT22;33163;0.000;0.000;2022-08-02T01:03:17;23.10;58.80
47414;DHT22;33163;0.000;0.000;2022-08-02T01:05:43;23.10;58.90
47414;DHT22;33163;0.000;0.000;2022-08-02T01:08:10;23.10;59.00
47414;DHT22;33163;0.000;0.000;2022-08-02T01:10:37;23.10;59.00
47414;DHT22;33163;0.000;0.000;2022-08-02T01:13:05;23.10;58.70
47414;DHT22;33163;0.000;0.000;2022-08-02T01:15:33;23.10;58.90
47414;DHT22;33163;0.000;0.000;2022-08-02T01:18:04;23.10;59.00
47414;DHT22;33163;0.000;0.000;2022-08-02T01:20:48;23.10;59.00
47414;DHT22;33163;0.000;0.000;2022-08-02T01:23:38;23.10;58.60
47414;DHT22;33163;0.000;0.000;2022-08-02T01:26:22;23.00;59.40
47414;DHT22;33163;0.000;0.000;2022-08-02T01:28:57;23.10;58.70
47414;DHT22;33163;0.000;0.000;2022-08-02T01:31:31;23.00;58.60
47414;DHT22;33163;0.000;0.000;2022-08-02T01:34:02;23.10;58.60
47414;DHT22;33163;0.000;0.000;2022-08-02T01:36:33;23.00;58.70
47414;DHT22;33163;0.000;0.000;2022-08-02T01:39:02;23.00;58.90
47414;DHT22;33163;0.000;0.000;2022-08-02T01:41:31;23.00;58.70
47414;DHT22;33163;0.000;0.000;2022-08-02T01:44:01;23.00;58.70
47414;DHT22;33163;0.000;0.000;2022-08-02T01:46:29;23.00;58.70
47414;DHT22;33163;0.000;0.000;2022-08-02T01:49:00;23.00;58.60
47414;DHT22;33163;0.000;0.000;2022-08-02T01:51:28;23.00;58.80
47414;DHT22;33163;0.000;0.000;2022-08-02T01:54:15;23.00;58.60
47414;DHT22;33163;0.000;0.000;2022-08-02T01:56:43;23.00;58.70
47414;DHT22;33163;0.000;0.000;2022-08-02T01:59:15;23.00;58.50
47414;DHT22;33163;0.000;0.000;2022-08-02T02:01:43;23.00;58.50
47414;DHT22;33163;0.000;0.000;2022-08-02T02:04:14;23.00;58.60
47414;DHT22;33163;0.000;0.000;2022-08-02T02:06:42;23.00;58.60
47414;DHT22;33163;0.000;0.000;2022-08-02T02:09:11;23.00;58.60
47414;DHT22;33163;0.000;0.000;2022-08-02T02:11:41;23.00;58.60
47414;DHT22;33163;0.000;0.000;2022-08-02T02:14:11;23.00;58.50
47414;DHT22;33163;0.000;0.000;2022-08-02T02:16:41;23.00;58.70
47414;DHT22;33163;0.000;0.000;2022-08-02T02:19:11;23.00;58.70
47414;DHT22;33163;0.000;0.000;2022-08-02T02:21:40;23.00;58.90
47414;DHT22;33163;0.000;0.000;2022-08-02T02:24:07;23.00;58.70
47414;DHT22;33163;0.000;0.000;2022-08-02T02:26:35;23.00;58.60
47414;DHT22;33163;0.000;0.000;2022-08-02T02:29:05;23.00;58.50
47414;DHT22;33163;0.000;0.000;2022-08-02T02:31:37;23.00;58.50
47414;DHT22;33163;0.000;0.000;2022-08-02T02:34:09;23.00;58.50
47414;DHT22;33163;0.000;0.000;2022-08-02T02:36:39;23.00;58.50
47414;DHT22;33163;0.000;0.000;2022-08-02T02:39:08;23.00;58.70
47414;DHT22;33163;0.000;0.000;2022-08-02T02:41:37;23.00;58.50
47414;DHT22;33163;0.000;0.000;2022-08-02T02:44:08;22.90;58.60
47414;DHT22;33163;0.000;0.000;2022-08-02T02:46:41;23.00;58.50
47414;DHT22;33163;0.000;0.000;2022-08-02T02:49:10;23.00;58.50
47414;DHT22;33163;0.000;0.000;2022-08-02T02:51:38;23.00;58.70
47414;DHT22;33163;0.000;0.000;2022-08-02T02:54:07;23.00;58.40
47414;DHT22;33163;0.000;0.000;2022-08-02T02:56:36;22.90;58.30
47414;DHT22;33163;0.000;0.000;2022-08-02T02:59:03;23.00;58.50
47414;DHT22;33163;0.000;0.000;2022-08-02T03:01:31;22.90;58.40
47414;DHT22;33163;0.000;0.000;2022-08-02T03:04:02;23.00;58.50
47414;DHT22;33163;0.000;0.000;2022-08-02T03:06:30;23.00;58.40
47414;DHT22;33163;0.000;0.000;2022-08-02T03:08:58;22.90;58.60
47414;DHT22;33163;0.000;0.000;2022-08-02T03:11:25;22.90;58.50
47414;DHT22;33163;0.000;0.000;2022-08-02T03:13:55;22.90;58.40
47414;DHT22;33163;0.000;0.000;2022-08-02T03:16:22;22.90;58.40
47414;DHT22;33163;0.000;0.000;2022-08-02T03:18:49;22.90;58.30
47414;DHT22;33163;0.000;0.000;2022-08-02T03:21:17;22.90;58.20
47414;DHT22;33163;0.000;0.000;2022-08-02T03:23:44;22.90;58.30
47414;DHT22;33163;0.000;0.000;2022-08-02T03:26:11;22.90;58.30
47414;DHT22;33163;0.000;0.000;2022-08-02T03:28:39;22.90;58.30
47414;DHT22;33163;0.000;0.000;2022-08-02T03:31:06;22.90;58.50
47414;DHT22;33163;0.000;0.000;2022-08-02T03:33:33;22.90;59.00
47414;DHT22;33163;0.000;0.000;2022-08-02T03:36:03;22.90;58.30
47414;DHT22;33163;0.000;0.000;2022-08-02T03:38:32;22.90;58.20
47414;DHT22;33163;0.000;0.000;2022-08-02T03:41:01;22.90;58.20
47414;DHT22;33163;0.000;0.000;2022-08-02T03:43:28;22.90;58.10
47414;DHT22;33163;0.000;0.000;2022-08-02T03:45:57;22.90;58.00
47414;DHT22;33163;0.000;0.000;2022-08-02T03:48:25;22.90;58.10
47414;DHT22;33163;0.000;0.000;2022-08-02T03:50:52;22.90;58.00
47414;DHT22;33163;0.000;0.000;2022-08-02T03:53:20;22.90;58.00
47414;DHT22;33163;0.000;0.000;2022-08-02T03:55:48;22.90;57.90
47414;DHT22;33163;0.000;0.000;2022-08-02T03:58:19;22.90;57.90
47414;DHT22;33163;0.000;0.000;2022-08-02T04:00:45;22.90;58.30
47414;DHT22;33163;0.000;0.000;2022-08-02T04:03:12;22.90;58.10
47414;DHT22;33163;0.000;0.000;2022-08-02T04:05:39;22.90;58.10
47414;DHT22;33163;0.000;0.000;2022-08-02T04:08:06;22.90;58.00
47414;DHT22;33163;0.000;0.000;2022-08-02T04:10:33;22.80;57.90
47414;DHT22;33163;0.000;0.000;2022-08-02T04:13:22;22.80;57.80
47414;DHT22;33163;0.000;0.000;2022-08-02T04:15:54;22.80;57.60
47414;DHT22;33163;0.000;0.000;2022-08-02T04:18:26;22.80;57.70
47414;DHT22;33163;0.000;0.000;2022-08-02T04:20:56;22.80;57.70
47414;DHT22;33163;0.000;0.000;2022-08-02T04:23:26;22.80;57.90
47414;DHT22;33163;0.000;0.000;2022-08-02T04:25:55;22.80;57.80
47414;DHT22;33163;0.000;0.000;2022-08-02T04:28:24;22.80;57.70
47414;DHT22;33163;0.000;0.000;2022-08-02T04:30:51;22.80;57.70
47414;DHT22;33163;0.000;0.000;2022-08-02T04:33:19;22.80;57.60
47414;DHT22;33163;0.000;0.000;2022-08-02T04:35:46;22.80;58.20
47414;DHT22;33163;0.000;0.000;2022-08-02T04:38:14;22.80;57.70
47414;DHT22;33163;0.000;0.000;2022-08-02T04:40:49;22.80;57.70
47414;DHT22;33163;0.000;0.000;2022-08-02T04:43:16;22.80;57.50
47414;DHT22;33163;0.000;0.000;2022-08-02T04:45:44;22.80;57.90
47414;DHT22;33163;0.000;0.000;2022-08-02T04:48:12;22.80;57.80
47414;DHT22;33163;0.000;0.000;2022-08-02T04:50:39;22.80;57.70
47414;DHT22;33163;0.000;0.000;2022-08-02T04:53:06;22.80;57.60
47414;DHT22;33163;0.000;0.000;2022-08-02T04:55:32;22.80;57.60
47414;DHT22;33163;0.000;0.000;2022-08-02T04:57:59;22.80;57.50
47414;DHT22;33163;0.000;0.000;2022-08-02T05:00:27;22.80;57.80
47414;DHT22;33163;0.000;0.000;2022-08-02T05:02:56;22.80;57.80
47414;DHT22;33163;0.000;0.000;2022-08-02T05:05:24;22.80;57.70
47414;DHT22;33163;0.000;0.000;2022-08-02T05:07:51;22.80;57.50
47414;DHT22;33163;0.000;0.000;2022-08-02T05:10:18;22.80;57.60
47414;DHT22;33163;0.000;0.000;2022-08-02T05:12:45;22.80;57.60
47414;DHT22;33163;0.000;0.000;2022-08-02T05:15:12;22.80;57.70
47414;DHT22;33163;0.000;0.000;2022-08-02T05:17:41;22.80;57.70
47414;DHT22;33163;0.000;0.000;2022-08-02T05:20:10;22.80;57.80
47414;DHT22;33163;0.000;0.000;2022-08-02T05:22:41;22.80;57.70
47414;DHT22;33163;0.000;0.000;2022-08-02T05:25:09;22.80;57.60
47414;DHT22;33163;0.000;0.000;2022-08-02T05:27:35;22.80;57.80
47414;DHT22;33163;0.000;0.000;2022-08-02T05:30:03;22.80;57.70
47414;DHT22;33163;0.000;0.000;2022-08-02T05:32:30;22.80;57.80
47414;DHT22;33163;0.000;0.000;2022-08-02T05:34:58;22.80;58.00
47414;DHT22;33163;0.000;0.000;2022-08-02T05:37:26;22.80;58.00
47414;DHT22;33163;0.000;0.000;2022-08-02T05:39:53;22.80;57.80
47414;DHT22;33163;0.000;0.000;2022-08-02T05:42:20;22.80;57.70
47414;DHT22;33163;0.000;0.000;2022-08-02T05:44:46;22.80;57.80
47414;DHT22;33163;0.000;0.000;2022-08-02T05:47:13;22.80;57.80
47414;DHT22;33163;0.000;0.000;2022-08-02T05:49:40;22.80;57.80
47414;DHT22;33163;0.000;0.000;2022-08-02T05:52:13;22.80;57.80
47414;DHT22;33163;0.000;0.000;2022-08-02T05:54:47;22.80;57.80
47414;DHT22;33163;0.000;0.000;2022-08-02T05:57:24;22.80;57.70
47414;DHT22;33163;0.000;0.000;2022-08-02T06:00:02;22.80;57.80
47414;DHT22;33163;0.000;0.000;2022-08-02T06:02:45;22.80;57.90
47414;DHT22;33163;0.000;0.000;2022-08-02T06:05:15;22.80;58.00
47414;DHT22;33163;0.000;0.000;2022-08-02T06:07:44;22.80;58.10
47414;DHT22;33163;0.000;0.000;2022-08-02T06:10:15;22.80;58.80
47414;DHT22;33163;0.000;0.000;2022-08-02T06:12:45;22.80;58.10
47414;DHT22;33163;0.000;0.000;2022-08-02T06:15:15;22.80;58.10
47414;DHT22;33163;0.000;0.000;2022-08-02T06:17:42;22.80;58.10
47414;DHT22;33163;0.000;0.000;2022-08-02T06:20:10;22.80;58.20
47414;DHT22;33163;0.000;0.000;2022-08-02T06:22:40;22.80;58.30
47414;DHT22;33163;0.000;0.000;2022-08-02T06:25:08;22.80;58.40
47414;DHT22;33163;0.000;0.000;2022-08-02T06:27:37;22.80;58.30
47414;DHT22;33163;0.000;0.000;2022-08-02T06:30:08;22.80;58.40
47414;DHT22;33163;0.000;0.000;2022-08-02T06:32:35;22.80;58.40
47414;DHT22;33163;0.000;0.000;2022-08-02T06:35:03;22.90;58.50
47414;DHT22;33163;0.000;0.000;2022-08-02T06:37:36;22.80;58.50
47414;DHT22;33163;0.000;0.000;2022-08-02T06:40:13;22.90;58.60
47414;DHT22;33163;0.000;0.000;2022-08-02T06:42:48;22.90;58.60
47414;DHT22;33163;0.000;0.000;2022-08-02T06:45:17;22.90;58.70
47414;DHT22;33163;0.000;0.000;2022-08-02T06:47:44;22.90;58.70
47414;DHT22;33163;0.000;0.000;2022-08-02T06:50:11;23.00;58.80
47414;DHT22;33163;0.000;0.000;2022-08-02T06:52:40;23.00;58.80
47414;DHT22;33163;0.000;0.000;2022-08-02T06:55:08;23.00;59.00
47414;DHT22;33163;0.000;0.000;2022-08-02T06:57:35;23.00;59.10
47414;DHT22;33163;0.000;0.000;2022-08-02T07:00:05;23.00;59.30
47414;DHT22;33163;0.000;0.000;2022-08-02T07:02:34;23.00;59.30
47414;DHT22;33163;0.000;0.000;2022-08-02T07:05:00;23.00;60.10
47414;DHT22;33163;0.000;0.000;2022-08-02T07:07:28;23.00;59.60
47414;DHT22;33163;0.000;0.000;2022-08-02T07:09:54;23.00;59.70
47414;DHT22;33163;0.000;0.000;2022-08-02T07:12:21;23.00;59.80
47414;DHT22;33163;0.000;0.000;2022-08-02T07:14:48;23.00;60.00
47414;DHT22;33163;0.000;0.000;2022-08-02T07:17:16;23.00;59.90
47414;DHT22;33163;0.000;0.000;2022-08-02T07:19:43;23.10;60.20
47414;DHT22;33163;0.000;0.000;2022-08-02T07:22:09;23.10;60.10
47414;DHT22;33163;0.000;0.000;2022-08-02T07:24:37;23.10;60.50
47414;DHT22;33163;0.000;0.000;2022-08-02T07:27:04;23.10;60.70
47414;DHT22;33163;0.000;0.000;2022-08-02T07:29:31;23.10;60.80
47414;DHT22;33163;0.000;0.000;2022-08-02T07:31:58;23.10;61.40
47414;DHT22;33163;0.000;0.000;2022-08-02T07:34:26;23.10;60.80
47414;DHT22;33163;0.000;0.000;2022-08-02T07:36:53;23.10;61.00
47414;DHT22;33163;0.000;0.000;2022-08-02T07:39:20;23.10;61.10
47414;DHT22;33163;0.000;0.000;2022-08-02T07:41:47;23.10;60.90
47414;DHT22;33163;0.000;0.000;2022-08-02T07:44:15;23.20;60.90
47414;DHT22;33163;0.000;0.000;2022-08-02T07:46:42;23.20;61.00
47414;DHT22;33163;0.000;0.000;2022-08-02T07:49:09;23.20;61.00
47414;DHT22;33163;0.000;0.000;2022-08-02T07:51:39;23.20;61.00
47414;DHT22;33163;0.000;0.000;2022-08-02T07:54:06;23.20;61.00
47414;DHT22;33163;0.000;0.000;2022-08-02T07:56:33;23.20;61.10
47414;DHT22;33163;0.000;0.000;2022-08-02T07:58:59;23.20;61.20
47414;DHT22;33163;0.000;0.000;2022-08-02T08:01:26;23.20;61.20
47414;DHT22;33163;0.000;0.000;2022-08-02T08:03:53;23.20;61.10
47414;DHT22;33163;0.000;0.000;2022-08-02T08:06:20;23.20;61.20
47414;DHT22;33163;0.000;0.000;2022-08-02T08:08:48;23.30;61.30
47414;DHT22;33163;0.000;0.000;2022-08-02T08:11:14;23.30;61.30
47414;DHT22;33163;0.000;0.000;2022-08-02T08:13:41;23.30;61.20
47414;DHT22;33163;0.000;0.000;2022-08-02T08:16:08;23.30;61.30
47414;DHT22;33163;0.000;0.000;2022-08-02T08:18:35;23.30;61.30
47414;DHT22;33163;0.000;0.000;2022-08-02T08:21:01;23.30;61.30
47414;DHT22;33163;0.000;0.000;2022-08-02T08:23:28;23.30;61.30
47414;DHT22;33163;0.000;0.000;2022-08-02T08:25:56;23.40;61.30
47414;DHT22;33163;0.000;0.000;2022-08-02T08:28:23;23.40;61.30
47414;DHT22;33163;0.000;0.000;2022-08-02T08:30:50;23.40;61.30
47414;DHT22;33163;0.000;0.000;2022-08-02T08:33:17;23.40;61.30
47414;DHT22;33163;0.000;0.000;2022-08-02T08:35:44;23.40;61.20
47414;DHT22;33163;0.000;0.000;2022-08-02T08:38:10;23.50;61.30
47414;DHT22;33163;0.000;0.000;2022-08-02T08:40:37;23.50;61.20
47414;DHT22;33163;0.000;0.000;2022-08-02T08:43:07;23.50;61.30
47414;DHT22;33163;0.000;0.000;2022-08-02T08:45:34;23.50;61.30
47414;DHT22;33163;0.000;0.000;2022-08-02T08:48:06;23.50;61.30
47414;DHT22;33163;0.000;0.000;2022-08-02T08:50:43;23.50;61.30
47414;DHT22;33163;0.000;0.000;2022-08-02T08:53:13;23.50;61.30
47414;DHT22;33163;0.000;0.000;2022-08-02T08:55:41;23.50;61.40
47414;DHT22;33163;0.000;0.000;2022-08-02T08:58:10;23.50;61.40
47414;DHT22;33163;0.000;0.000;2022-08-02T09:00:38;23.50;61.40
47414;DHT22;33163;0.000;0.000;2022-08-02T09:03:08;23.50;61.40
47414;DHT22;33163;0.000;0.000;2022-08-02T09:05:36;23.50;61.40
47414;DHT22;33163;0.000;0.000;2022-08-02T09:08:04;23.50;61.40
47414;DHT22;33163;0.000;0.000;2022-08-02T09:10:36;23.50;61.40
47414;DHT22;33163;0.000;0.000;2022-08-02T09:13:16;23.60;61.50
47414;DHT22;33163;0.000;0.000;2022-08-02T09:15:53;23.50;61.50
47414;DHT22;33163;0.000;0.000;2022-08-02T09:18:27;23.50;61.50
47414;DHT22;33163;0.000;0.000;2022-08-02T09:20:56;23.50;61.50
47414;DHT22;33163;0.000;0.000;2022-08-02T09:23:23;23.60;61.50
47414;DHT22;33163;0.000;0.000;2022-08-02T09:25:56;23.60;61.50
47414;DHT22;33163;0.000;0.000;2022-08-02T09:28:29;23.50;61.40
47414;DHT22;33163;0.000;0.000;2022-08-02T09:31:01;23.60;61.50
47414;DHT22;33163;0.000;0.000;2022-08-02T09:33:28;23.60;61.50
47414;DHT22;33163;0.000;0.000;2022-08-02T09:35:59;23.60;61.50
47414;DHT22;33163;0.000;0.000;2022-08-02T09:38:27;23.60;61.60
47414;DHT22;33163;0.000;0.000;2022-08-02T09:40:54;23.60;61.50
47414;DHT22;33163;0.000;0.000;2022-08-02T09:43:34;23.60;61.50
47414;DHT22;33163;0.000;0.000;2022-08-02T09:46:12;23.60;61.50
47414;DHT22;33163;0.000;0.000;2022-08-02T09:48:49;23.60;61.50
47414;DHT22;33163;0.000;0.000;2022-08-02T09:51:17;23.60;61.50
47414;DHT22;33163;0.000;0.000;2022-08-02T09:53:46;23.60;61.50
47414;DHT22;33163;0.000;0.000;2022-08-02T09:56:13;23.70;61.60
47414;DHT22;33163;0.000;0.000;2022-08-02T09:58:42;23.70;61.60
47414;DHT22;33163;0.000;0.000;2022-08-02T10:01:09;23.70;61.60
47414;DHT22;33163;0.000;0.000;2022-08-02T10:03:36;23.70;61.60
47414;DHT22;33163;0.000;0.000;2022-08-02T10:06:03;23.70;61.60
47414;DHT22;33163;0.000;0.000;2022-08-02T10:08:31;23.70;61.60
47414;DHT22;33163;0.000;0.000;2022-08-02T10:10:58;23.70;61.60
47414;DHT22;33163;0.000;0.000;2022-08-02T10:13:29;23.80;61.70
47414;DHT22;33163;0.000;0.000;2022-08-02T10:15:57;23.70;61.70
47414;DHT22;33163;0.000;0.000;2022-08-02T10:18:24;23.80;61.70
47414;DHT22;33163;0.000;0.000;2022-08-02T10:20:53;23.80;61.70
47414;DHT22;33163;0.000;0.000;2022-08-02T10:23:21;23.80;61.70
47414;DHT22;33163;0.000;0.000;2022-08-02T10:25:52;23.80;61.70
47414;DHT22;33163;0.000;0.000;2022-08-02T10:28:25;23.90;61.80
47414;DHT22;33163;0.000;0.000;2022-08-02T10:30:53;23.90;61.80
47414;DHT22;33163;0.000;0.000;2022-08-02T10:33:23;23.90;61.80
47414;DHT22;33163;0.000;0.000;2022-08-02T10:35:53;23.90;61.70
47414;DHT22;33163;0.000;0.000;2022-08-02T10:38:22;23.90;61.70
47414;DHT22;33163;0.000;0.000;2022-08-02T10:40:50;23.90;61.70
47414;DHT22;33163;0.000;0.000;2022-08-02T10:43:42;23.90;61.70
47414;DHT22;33163;0.000;0.000;2022-08-02T10:46:29;24.00;61.70
47414;DHT22;33163;0.000;0.000;2022-08-02T10:49:05;24.00;61.80
47414;DHT22;33163;0.000;0.000;2022-08-02T10:51:55;24.00;61.80
47414;DHT22;33163;0.000;0.000;2022-08-02T10:54:23;24.00;61.80
47414;DHT22;33163;0.000;0.000;2022-08-02T10:56:52;24.00;61.70
47414;DHT22;33163;0.000;0.000;2022-08-02T10:59:27;24.00;61.70
47414;DHT22;33163;0.000;0.000;2022-08-02T11:01:56;24.00;61.80
47414;DHT22;33163;0.000;0.000;2022-08-02T11:07:21;24.00;61.70
47414;DHT22;33163;0.000;0.000;2022-08-02T11:09:56;24.00;61.70
47414;DHT22;33163;0.000;0.000;2022-08-02T11:12:24;24.00;61.70
47414;DHT22;33163;0.000;0.000;2022-08-02T11:14:59;24.00;61.70
47414;DHT22;33163;0.000;0.000;2022-08-02T11:17:26;24.00;61.70
47414;DHT22;33163;0.000;0.000;2022-08-02T11:20:15;24.00;61.70
47414;DHT22;33163;0.000;0.000;2022-08-02T11:22:43;24.10;61.70
47414;DHT22;33163;0.000;0.000;2022-08-02T11:25:28;24.10;61.70
47414;DHT22;33163;0.000;0.000;2022-08-02T11:27:57;24.10;61.70
47414;DHT22;33163;0.000;0.000;2022-08-02T11:30:25;24.10;61.70
47414;DHT22;33163;0.000;0.000;2022-08-02T11:32:54;24.10;61.70
47414;DHT22;33163;0.000;0.000;2022-08-02T11:35:29;24.10;61.70
47414;DHT22;33163;0.000;0.000;2022-08-02T11:37:56;24.10;61.70
47414;DHT22;33163;0.000;0.000;2022-08-02T11:40:23;24.10;61.70
47414;DHT22;33163;0.000;0.000;2022-08-02T11:43:02;24.10;61.70
47414;DHT22;33163;0.000;0.000;2022-08-02T11:45:29;24.20;61.70
47414;DHT22;33163;0.000;0.000;2022-08-02T11:47:55;24.10;61.70
47414;DHT22;33163;0.000;0.000;2022-08-02T11:50:24;24.20;61.70
47414;DHT22;33163;0.000;0.000;2022-08-02T11:52:51;24.20;61.70
47414;DHT22;33163;0.000;0.000;2022-08-02T11:55:26;24.20;61.70
47414;DHT22;33163;0.000;0.000;2022-08-02T11:57:57;24.20;61.70
47414;DHT22;33163;0.000;0.000;2022-08-02T12:00:24;24.20;61.60
47414;DHT22;33163;0.000;0.000;2022-08-02T12:02:51;24.20;61.60
47414;DHT22;33163;0.000;0.000;2022-08-02T12:05:21;24.20;61.60
47414;DHT22;33163;0.000;0.000;2022-08-02T12:07:50;24.30;61.70
47414;DHT22;33163;0.000;0.000;2022-08-02T12:10:19;24.30;61.60
47414;DHT22;33163;0.000;0.000;2022-08-02T12:12:48;24.20;61.60
47414;DHT22;33163;0.000;0.000;2022-08-02T12:15:15;24.20;61.60
47414;DHT22;33163;0.000;0.000;2022-08-02T12:17:53;24.20;61.60
47414;DHT22;33163;0.000;0.000;2022-08-02T12:20:40;24.20;61.60
47414;DHT22;33163;0.000;0.000;2022-08-02T12:23:08;24.20;61.60
47414;DHT22;33163;0.000;0.000;2022-08-02T12:25:35;24.30;61.60
47414;DHT22;33163;0.000;0.000;2022-08-02T12:28:13;24.30;61.60
47414;DHT22;33163;0.000;0.000;2022-08-02T12:30:52;24.30;61.60
47414;DHT22;33163;0.000;0.000;2022-08-02T12:33:19;24.30;61.60
47414;DHT22;33163;0.000;0.000;2022-08-02T12:35:46;24.30;61.60
47414;DHT22;33163;0.000;0.000;2022-08-02T12:38:14;24.30;61.60
47414;DHT22;33163;0.000;0.000;2022-08-02T12:40:41;24.30;61.60
47414;DHT22;33163;0.000;0.000;2022-08-02T12:43:17;24.30;61.60
47414;DHT22;33163;0.000;0.000;2022-08-02T12:45:46;24.30;61.60
47414;DHT22;33163;0.000;0.000;2022-08-02T12:48:14;24.30;61.60
47414;DHT22;33163;0.000;0.000;2022-08-02T12:50:42;24.30;61.60
47414;DHT22;33163;0.000;0.000;2022-08-02T12:53:10;24.30;61.60
47414;DHT22;33163;0.000;0.000;2022-08-02T12:55:52;24.30;61.60
47414;DHT22;33163;0.000;0.000;2022-08-02T12:58:20;24.30;61.60
47414;DHT22;33163;0.000;0.000;2022-08-02T13:00:51;24.30;61.60
47414;DHT22;33163;0.000;0.000;2022-08-02T13:03:18;24.30;61.60
47414;DHT22;33163;0.000;0.000;2022-08-02T13:05:46;24.30;61.60
47414;DHT22;33163;0.000;0.000;2022-08-02T13:08:13;24.30;61.70
47414;DHT22;33163;0.000;0.000;2022-08-02T13:10:40;24.30;61.60
47414;DHT22;33163;0.000;0.000;2022-08-02T13:13:08;24.30;61.70
47414;DHT22;33163;0.000;0.000;2022-08-02T13:15:35;24.30;61.70
47414;DHT22;33163;0.000;0.000;2022-08-02T13:18:02;24.30;61.70
47414;DHT22;33163;0.000;0.000;2022-08-02T13:20:29;24.30;61.70
47414;DHT22;33163;0.000;0.000;2022-08-02T13:22:56;24.30;61.80
47414;DHT22;33163;0.000;0.000;2022-08-02T13:25:23;24.30;61.80
47414;DHT22;33163;0.000;0.000;2022-08-02T13:27:50;24.30;61.80
47414;DHT22;33163;0.000;0.000;2022-08-02T13:30:18;24.30;61.90
47414;DHT22;33163;0.000;0.000;2022-08-02T13:32:45;24.30;61.90
47414;DHT22;33163;0.000;0.000;2022-08-02T13:35:12;24.30;61.90
47414;DHT22;33163;0.000;0.000;2022-08-02T13:37:40;24.30;61.90
47414;DHT22;33163;0.000;0.000;2022-08-02T13:40:08;24.30;61.90
47414;DHT22;33163;0.000;0.000;2022-08-02T13:42:35;24.30;61.90
47414;DHT22;33163;0.000;0.000;2022-08-02T13:45:02;24.30;61.90
47414;DHT22;33163;0.000;0.000;2022-08-02T13:47:30;24.30;62.00
47414;DHT22;33163;0.000;0.000;2022-08-02T13:49:57;24.30;62.00
47414;DHT22;33163;0.000;0.000;2022-08-02T13:52:23;24.30;62.00
47414;DHT22;33163;0.000;0.000;2022-08-02T13:54:50;24.30;62.00
47414;DHT22;33163;0.000;0.000;2022-08-02T13:57:17;24.30;62.10
47414;DHT22;33163;0.000;0.000;2022-08-02T13:59:44;24.30;62.10
47414;DHT22;33163;0.000;0.000;2022-08-02T14:02:10;24.30;62.10
47414;DHT22;33163;0.000;0.000;2022-08-02T14:04:39;24.30;62.10
47414;DHT22;33163;0.000;0.000;2022-08-02T14:07:05;24.30;62.10
47414;DHT22;33163;0.000;0.000;2022-08-02T14:09:32;24.30;62.20
47414;DHT22;33163;0.000;0.000;2022-08-02T14:12:00;24.30;62.20
47414;DHT22;33163;0.000;0.000;2022-08-02T14:14:27;24.30;62.20
47414;DHT22;33163;0.000;0.000;2022-08-02T14:16:54;24.30;62.30
47414;DHT22;33163;0.000;0.000;2022-08-02T14:19:21;24.30;62.30
47414;DHT22;33163;0.000;0.000;2022-08-02T14:21:50;24.20;62.30
47414;DHT22;33163;0.000;0.000;2022-08-02T14:24:18;24.30;62.40
47414;DHT22;33163;0.000;0.000;2022-08-02T14:26:46;24.30;62.40
47414;DHT22;33163;0.000;0.000;2022-08-02T14:29:14;24.30;62.40
47414;DHT22;33163;0.000;0.000;2022-08-02T14:31:41;24.30;62.40
47414;DHT22;33163;0.000;0.000;2022-08-02T14:34:07;24.30;62.40
47414;DHT22;33163;0.000;0.000;2022-08-02T14:36:36;24.30;62.40
47414;DHT22;33163;0.000;0.000;2022-08-02T14:39:04;24.30;62.50
47414;DHT22;33163;0.000;0.000;2022-08-02T14:41:31;24.30;62.50
47414;DHT22;33163;0.000;0.000;2022-08-02T14:44:01;24.30;62.50
47414;DHT22;33163;0.000;0.000;2022-08-02T14:46:33;24.30;62.50
47414;DHT22;33163;0.000;0.000;2022-08-02T14:49:00;24.30;62.60
47414;DHT22;33163;0.000;0.000;2022-08-02T14:51:28;24.30;62.60
47414;DHT22;33163;0.000;0.000;2022-08-02T14:53:55;24.30;62.50
47414;DHT22;33163;0.000;0.000;2022-08-02T14:56:23;24.30;62.60
47414;DHT22;33163;0.000;0.000;2022-08-02T14:58:50;24.30;62.70
47414;DHT22;33163;0.000;0.000;2022-08-02T15:01:17;24.30;62.70
47414;DHT22;33163;0.000;0.000;2022-08-02T15:03:45;24.30;62.70
47414;DHT22;33163;0.000;0.000;2022-08-02T15:06:12;24.30;62.80
47414;DHT22;33163;0.000;0.000;2022-08-02T15:08:39;24.30;62.80
47414;DHT22;33163;0.000;0.000;2022-08-02T15:11:05;24.30;62.80
47414;DHT22;33163;0.000;0.000;2022-08-02T15:13:33;24.30;62.80
47414;DHT22;33163;0.000;0.000;2022-08-02T15:16:02;24.30;62.90
47414;DHT22;33163;0.000;0.000;2022-08-02T15:18:29;24.30;62.90
47414;DHT22;33163;0.000;0.000;2022-08-02T15:20:56;24.30;62.90
47414;DHT22;33163;0.000;0.000;2022-08-02T15:23:23;24.30;63.00
47414;DHT22;33163;0.000;0.000;2022-08-02T15:25:50;24.30;63.00
47414;DHT22;33163;0.000;0.000;2022-08-02T15:28:17;24.30;63.00
47414;DHT22;33163;0.000;0.000;2022-08-02T15:30:45;24.30;63.10
47414;DHT22;33163;0.000;0.000;2022-08-02T15:33:12;24.30;63.10
47414;DHT22;33163;0.000;0.000;2022-08-02T15:35:39;24.30;63.10
47414;DHT22;33163;0.000;0.000;2022-08-02T15:38:05;24.20;63.10
47414;DHT22;33163;0.000;0.000;2022-08-02T15:40:32;24.30;63.20
47414;DHT22;33163;0.000;0.000;2022-08-02T15:42:59;24.30;63.20
47414;DHT22;33163;0.000;0.000;2022-08-02T15:45:26;24.30;63.30
47414;DHT22;33163;0.000;0.000;2022-08-02T15:47:54;24.30;63.30
47414;DHT22;33163;0.000;0.000;2022-08-02T15:50:22;24.30;63.40
47414;DHT22;33163;0.000;0.000;2022-08-02T15:52:48;24.30;63.40
47414;DHT22;33163;0.000;0.000;2022-08-02T15:55:15;24.20;63.40
47414;DHT22;33163;0.000;0.000;2022-08-02T15:57:42;24.30;63.50
47414;DHT22;33163;0.000;0.000;2022-08-02T16:00:10;24.30;63.50